Time;durP1;ratioP1;P1;durP2;ratioP2;P2;SDS_P1;SDS_P2;PMS_P1;PMS_P2;Temp;Humidity;BMP_temperature;BMP_pressure;BME280_temperature;BME280_humidity;BME280_pressure;Samples;Min_cycle;Max_cycle;Signal;HPM_P1;HPM_P2
2022/12/03 00:00:47;;;;;;;33.80;19.93;;;2.80;99.90;;;;;;5002748;28;20038;-78
2022/12/03 00:03:14;;;;;;;35.63;20.83;;;2.80;99.90;;;;;;4971529;28;20511;-77
2022/12/03 00:05:40;;;;;;;39.13;22.50;;;2.80;99.90;;;;;;4987604;28;20113;-79
2022/12/03 00:08:06;;;;;;;41.87;25.23;;;2.80;99.90;;;;;;4982252;28;20061;-78
2022/12/03 00:10:32;;;;;;;37.70;20.73;;;2.70;99.90;;;;;;4987538;28;20045;-78
2022/12/03 00:12:59;;;;;;;36.23;22.70;;;2.70;99.90;;;;;;4986741;28;20053;-79
2022/12/03 00:15:25;;;;;;;33.73;19.70;;;2.80;99.90;;;;;;4985961;28;20061;-78
2022/12/03 00:17:51;;;;;;;34.67;20.30;;;2.70;99.90;;;;;;4997293;28;20088;-77
2022/12/03 00:20:20;;;;;;;36.33;21.63;;;2.70;99.90;;;;;;4969697;28;20496;-78
2022/12/03 00:22:47;;;;;;;35.53;18.70;;;2.70;99.90;;;;;;5002790;28;20026;-78
2022/12/03 00:25:13;;;;;;;35.13;21.33;;;2.80;99.90;;;;;;4986646;28;20038;-77
2022/12/03 00:27:40;;;;;;;35.13;19.87;;;2.80;99.90;;;;;;4980776;28;20528;-77
2022/12/03 00:30:07;;;;;;;31.20;18.33;;;2.80;99.90;;;;;;4970308;28;20042;-78
2022/12/03 00:32:36;;;;;;;27.67;15.70;;;2.80;99.90;;;;;;4971182;28;20038;-78
2022/12/03 00:35:03;;;;;;;30.77;17.20;;;2.80;99.90;;;;;;4987550;28;20385;-77
2022/12/03 00:37:30;;;;;;;28.67;17.03;;;2.80;99.90;;;;;;4998103;28;20058;-78
2022/12/03 00:39:56;;;;;;;29.67;18.87;;;2.80;99.90;;;;;;4986037;28;20038;-78
2022/12/03 00:42:22;;;;;;;35.40;20.57;;;2.80;99.90;;;;;;4970535;28;20504;-76
2022/12/03 00:44:48;;;;;;;41.73;23.33;;;2.80;99.90;;;;;;4969614;28;20053;-78
2022/12/03 00:47:15;;;;;;;44.63;27.43;;;2.80;99.90;;;;;;4984873;28;20053;-78
2022/12/03 00:49:41;;;;;;;40.60;23.67;;;2.80;99.90;;;;;;4983543;28;20046;-78
2022/12/03 00:52:07;;;;;;;38.10;22.10;;;2.80;99.90;;;;;;4986073;28;20034;-78
2022/12/03 00:54:34;;;;;;;39.93;22.50;;;2.80;99.90;;;;;;4987116;28;20046;-78
2022/12/03 00:57:00;;;;;;;50.03;27.23;;;2.80;99.90;;;;;;4986021;28;20053;-77
2022/12/03 00:59:26;;;;;;;48.10;26.60;;;2.70;99.90;;;;;;4980687;28;20049;-77
2022/12/03 01:01:52;;;;;;;39.60;21.90;;;2.80;99.90;;;;;;4992448;28;20034;-79
2022/12/03 01:04:19;;;;;;;39.93;22.03;;;2.70;99.90;;;;;;4986992;28;20042;-78
2022/12/03 01:06:45;;;;;;;37.57;21.23;;;2.80;99.90;;;;;;4985996;28;20030;-78
2022/12/03 01:09:11;;;;;;;42.00;23.23;;;2.70;99.90;;;;;;4979981;28;20042;-78
2022/12/03 01:11:37;;;;;;;39.83;23.53;;;2.70;99.90;;;;;;4986307;28;20034;-78
2022/12/03 01:14:15;;;;;;;38.27;21.33;;;2.80;99.90;;;;;;4986678;28;20042;-77
2022/12/03 01:16:42;;;;;;;42.10;21.73;;;2.70;99.90;;;;;;4968308;28;20042;-77
2022/12/03 01:19:09;;;;;;;38.57;22.37;;;2.70;99.90;;;;;;4979756;28;20046;-78
2022/12/03 01:21:36;;;;;;;40.53;23.27;;;2.70;99.90;;;;;;4969949;28;20038;-78
2022/12/03 01:24:03;;;;;;;43.90;22.83;;;2.70;99.90;;;;;;4970248;28;20034;-79
2022/12/03 01:26:30;;;;;;;39.67;22.73;;;2.80;99.90;;;;;;4969572;28;20050;-78
2022/12/03 01:28:56;;;;;;;41.70;23.93;;;2.80;99.90;;;;;;4979495;28;20042;-78
2022/12/03 01:34:07;;;;;;;41.70;24.20;;;2.80;99.90;;;;;;5000144;28;20041;-78
2022/12/03 01:36:33;;;;;;;40.80;22.87;;;2.80;99.90;;;;;;4969697;28;20049;-77
2022/12/03 01:39:01;;;;;;;33.67;19.73;;;2.80;99.90;;;;;;4979479;28;20039;-78
2022/12/03 01:41:28;;;;;;;42.60;24.50;;;2.70;99.90;;;;;;4969764;28;20041;-78
2022/12/03 01:43:56;;;;;;;40.60;23.80;;;2.80;99.90;;;;;;4986177;28;20041;-78
2022/12/03 01:46:26;;;;;;;44.03;24.93;;;2.80;99.90;;;;;;4984852;28;20038;-79
2022/12/03 01:48:54;;;;;;;37.87;21.47;;;2.80;99.90;;;;;;4962381;28;20053;-79
2022/12/03 01:51:21;;;;;;;50.47;27.00;;;2.70;99.90;;;;;;4985424;28;20420;-78
2022/12/03 01:53:48;;;;;;;44.40;25.77;;;2.70;99.90;;;;;;4985923;28;20038;-78
2022/12/03 01:56:15;;;;;;;39.23;22.27;;;2.80;99.90;;;;;;4986488;28;20042;-79
2022/12/03 01:58:43;;;;;;;40.73;21.87;;;2.80;99.90;;;;;;4964139;28;20038;-78
2022/12/03 02:01:16;;;;;;;34.57;19.03;;;2.80;99.90;;;;;;4969079;28;20031;-78
2022/12/03 02:03:44;;;;;;;37.33;21.97;;;2.80;99.90;;;;;;4972811;28;20045;-78
2022/12/03 02:06:19;;;;;;;39.30;22.67;;;2.80;99.90;;;;;;4970191;28;20034;-77
2022/12/03 02:08:48;;;;;;;38.17;21.37;;;2.80;99.90;;;;;;4978674;28;20409;-79
2022/12/03 02:11:28;;;;;;;46.77;26.10;;;2.80;99.90;;;;;;4969725;28;20034;-79
2022/12/03 02:14:02;;;;;;;43.57;24.33;;;2.80;99.90;;;;;;4969629;28;20481;-78
2022/12/03 02:16:29;;;;;;;41.10;24.23;;;2.80;99.90;;;;;;4985579;28;20493;-78
2022/12/03 02:18:57;;;;;;;41.03;24.03;;;2.80;99.90;;;;;;4978030;28;20065;-77
2022/12/03 02:21:32;;;;;;;37.37;21.87;;;2.80;99.90;;;;;;4984320;28;20508;-77
2022/12/03 02:24:36;;;;;;;40.10;22.00;;;2.80;99.90;;;;;;4977226;28;20053;-77
2022/12/03 02:27:02;;;;;;;39.30;21.83;;;2.80;99.90;;;;;;4982342;28;20050;-77
2022/12/03 02:29:29;;;;;;;41.23;23.70;;;2.80;99.90;;;;;;4996221;28;20049;-77
2022/12/03 02:31:55;;;;;;;44.90;24.10;;;2.80;99.90;;;;;;4995938;28;20030;-77
2022/12/03 02:34:39;;;;;;;42.70;24.67;;;2.80;99.90;;;;;;4978767;28;20050;-77
2022/12/03 02:37:31;;;;;;;44.83;25.07;;;2.80;99.90;;;;;;4975702;28;20054;-77
2022/12/03 02:40:01;;;;;;;44.83;25.77;;;2.80;99.90;;;;;;4980449;28;20050;-77
2022/12/03 02:42:33;;;;;;;52.53;26.97;;;2.80;99.90;;;;;;4969401;28;20046;-76
2022/12/03 02:45:11;;;;;;;;;;;2.80;99.90;;;;;;4990326;28;20378;-77
2022/12/03 02:47:53;;;;;;;42.80;23.40;;;2.80;99.90;;;;;;4982313;28;19925;-78
2022/12/03 02:50:25;;;;;;;47.72;27.02;;;2.80;99.90;;;;;;4987330;28;20350;-77
2022/12/03 02:52:53;;;;;;;47.33;25.13;;;2.80;99.90;;;;;;5003881;28;20465;-76
2022/12/03 02:55:21;;;;;;;42.67;23.13;;;2.80;99.90;;;;;;5004404;28;20288;-77
2022/12/03 02:57:49;;;;;;;45.47;26.47;;;2.80;99.90;;;;;;4981688;28;20042;-75
2022/12/03 03:00:16;;;;;;;43.43;24.17;;;2.80;99.90;;;;;;4988817;28;20053;-77
2022/12/03 03:02:45;;;;;;;41.20;23.60;;;2.80;99.90;;;;;;4988098;28;20030;-78
2022/12/03 03:05:13;;;;;;;52.07;29.17;;;2.80;99.90;;;;;;4990865;28;20397;-76
2022/12/03 03:07:40;;;;;;;38.33;23.47;;;2.80;99.90;;;;;;4981959;28;20054;-77
2022/12/03 03:10:10;;;;;;;38.87;22.80;;;2.80;99.90;;;;;;4998075;28;20045;-77
2022/12/03 03:12:37;;;;;;;42.00;25.87;;;2.80;99.90;;;;;;4988768;28;20034;-77
2022/12/03 03:15:04;;;;;;;43.58;23.67;;;2.80;99.90;;;;;;5003480;28;20065;-77
2022/12/03 03:17:31;;;;;;;40.10;24.33;;;2.80;99.90;;;;;;4967812;28;20038;-77
2022/12/03 03:19:57;;;;;;;43.07;25.87;;;2.80;99.90;;;;;;4973569;28;20038;-77
2022/12/03 03:22:35;;;;;;;37.47;22.77;;;2.80;99.90;;;;;;4988745;28;20039;-78
2022/12/03 03:25:02;;;;;;;45.70;25.17;;;2.80;99.90;;;;;;4972255;28;20034;-76
2022/12/03 03:27:29;;;;;;;43.17;24.60;;;2.80;99.90;;;;;;4982680;28;20629;-77
2022/12/03 03:29:57;;;;;;;42.60;24.27;;;2.80;99.90;;;;;;4987103;28;20038;-78
2022/12/03 03:32:24;;;;;;;43.27;25.73;;;2.80;99.90;;;;;;4971859;28;20057;-78
2022/12/03 03:34:51;;;;;;;40.63;24.03;;;2.80;99.90;;;;;;4988542;28;20381;-77
2022/12/03 03:37:18;;;;;;;39.67;23.33;;;2.80;99.90;;;;;;4968793;28;20378;-78
2022/12/03 03:39:44;;;;;;;34.60;19.07;;;2.80;99.90;;;;;;4983836;28;20042;-77
2022/12/03 03:42:11;;;;;;;36.00;21.53;;;2.80;99.90;;;;;;4988694;28;20042;-78
2022/12/03 03:44:37;;;;;;;31.73;19.50;;;2.80;99.90;;;;;;4987845;28;20050;-77
2022/12/03 03:47:04;;;;;;;36.77;21.20;;;2.80;99.90;;;;;;4972503;28;20413;-76
2022/12/03 03:49:30;;;;;;;32.30;20.77;;;2.80;99.90;;;;;;4970278;28;20500;-76
2022/12/03 03:51:57;;;;;;;32.43;19.93;;;2.80;99.90;;;;;;4986472;28;20038;-76
2022/12/03 03:54:24;;;;;;;34.33;20.80;;;2.80;99.90;;;;;;4971637;28;20038;-77
2022/12/03 03:56:51;;;;;;;32.43;19.20;;;2.80;99.90;;;;;;5002161;28;20493;-76
2022/12/03 03:59:17;;;;;;;27.57;17.17;;;2.70;99.90;;;;;;4965235;28;20034;-76
2022/12/03 04:01:45;;;;;;;35.07;21.70;;;2.70;99.90;;;;;;4970782;28;20053;-77
2022/12/03 04:04:35;;;;;;;31.43;19.00;;;2.70;99.90;;;;;;4986346;28;20031;-77
2022/12/03 04:07:01;;;;;;;30.30;18.90;;;2.60;99.90;;;;;;4969787;28;20038;-78
2022/12/03 04:09:27;;;;;;;31.43;19.20;;;2.60;99.90;;;;;;4982440;28;20697;-76
2022/12/03 04:14:38;;;;;;;36.57;20.90;;;2.60;99.90;;;;;;4985973;28;20497;-77
2022/12/03 04:17:05;;;;;;;33.53;20.77;;;2.60;99.90;;;;;;4984798;28;20046;-77
2022/12/03 04:19:36;;;;;;;30.47;18.13;;;2.60;99.90;;;;;;4982982;28;20042;-76
2022/12/03 04:24:47;;;;;;;30.63;18.53;;;2.60;99.90;;;;;;4986307;28;20053;-78
2022/12/03 04:29:59;;;;;;;36.70;22.90;;;2.70;99.90;;;;;;5001569;28;20054;-78
2022/12/03 04:37:54;;;;;;;38.60;23.30;;;2.60;99.90;;;;;;4980308;28;20250;-77
2022/12/03 04:43:05;;;;;;;37.40;22.03;;;2.60;99.90;;;;;;4985702;28;20050;-76
2022/12/03 04:45:32;;;;;;;29.13;17.07;;;2.60;99.90;;;;;;4971046;28;20049;-77
2022/12/03 04:47:58;;;;;;;38.37;21.87;;;2.60;99.90;;;;;;4978809;28;20837;-77
2022/12/03 04:50:24;;;;;;;33.90;19.73;;;2.60;99.90;;;;;;4971026;28;20075;-77
2022/12/03 04:52:51;;;;;;;37.23;21.57;;;2.50;99.90;;;;;;4985639;28;20041;-77
2022/12/03 04:55:17;;;;;;;36.43;22.10;;;2.60;99.90;;;;;;5002158;28;20049;-78
2022/12/03 04:57:43;;;;;;;33.10;20.20;;;2.60;99.90;;;;;;4978660;28;20042;-76
2022/12/03 05:00:10;;;;;;;39.80;22.47;;;2.50;99.90;;;;;;4985220;28;20037;-77
2022/12/03 05:02:36;;;;;;;36.80;22.17;;;2.50;99.90;;;;;;4972351;28;20389;-77
2022/12/03 05:05:03;;;;;;;36.83;21.73;;;2.50;99.90;;;;;;4971403;28;20069;-77
2022/12/03 05:07:29;;;;;;;37.43;21.77;;;2.50;99.90;;;;;;4979006;28;20050;-77
2022/12/03 05:09:56;;;;;;;37.57;22.47;;;2.50;99.90;;;;;;4983019;28;20034;-77
2022/12/03 05:12:22;;;;;;;35.37;21.00;;;2.50;99.90;;;;;;4985759;28;20042;-77
2022/12/03 05:14:48;;;;;;;36.10;20.30;;;2.50;99.90;;;;;;4985257;28;20062;-77
2022/12/03 05:17:15;;;;;;;43.50;25.60;;;2.50;99.90;;;;;;4966470;28;20045;-77
2022/12/03 05:22:26;;;;;;;38.93;23.83;;;2.50;99.90;;;;;;4974259;28;20378;-78
2022/12/03 05:24:52;;;;;;;34.30;19.23;;;2.50;99.90;;;;;;4985096;28;20440;-77
2022/12/03 05:27:20;;;;;;;44.67;25.57;;;2.50;99.90;;;;;;4966364;28;20042;-77
2022/12/03 05:29:47;;;;;;;37.67;21.70;;;2.50;99.90;;;;;;4981920;28;20053;-77
2022/12/03 05:32:13;;;;;;;43.30;24.97;;;2.50;99.90;;;;;;4973361;28;20038;-77
2022/12/03 05:34:40;;;;;;;47.20;26.20;;;2.40;99.90;;;;;;5001167;28;20038;-77
2022/12/03 05:37:06;;;;;;;42.57;24.67;;;2.40;99.90;;;;;;4984467;28;20042;-78
2022/12/03 05:39:32;;;;;;;37.20;20.83;;;2.40;99.90;;;;;;4981219;28;20053;-77
2022/12/03 05:44:43;;;;;;;45.50;25.10;;;2.40;99.90;;;;;;4984813;28;20485;-77
2022/12/03 05:47:10;;;;;;;45.80;25.67;;;2.40;99.90;;;;;;4983949;28;20038;-76
2022/12/03 05:49:36;;;;;;;51.03;27.77;;;2.40;99.90;;;;;;4979308;28;20497;-76
2022/12/03 05:52:02;;;;;;;39.13;21.97;;;2.40;99.90;;;;;;4986284;28;20038;-76
2022/12/03 05:54:29;;;;;;;44.87;24.80;;;2.40;99.90;;;;;;4969409;28;20039;-77
2022/12/03 05:56:55;;;;;;;39.57;22.83;;;2.40;99.90;;;;;;4993151;28;20031;-78
2022/12/03 05:59:21;;;;;;;42.90;24.47;;;2.40;99.90;;;;;;4985231;28;20058;-77
2022/12/03 06:01:48;;;;;;;41.70;23.93;;;2.40;99.90;;;;;;4986233;28;20034;-78
2022/12/03 06:04:14;;;;;;;36.43;22.70;;;2.40;99.90;;;;;;4953712;28;20636;-77
2022/12/03 06:06:40;;;;;;;43.83;24.40;;;2.40;99.90;;;;;;4986146;28;20042;-77
2022/12/03 06:09:06;;;;;;;44.97;24.80;;;2.40;99.90;;;;;;4950075;28;20034;-76
2022/12/03 06:11:34;;;;;;;35.57;20.97;;;2.40;99.90;;;;;;4969127;28;20038;-76
2022/12/03 06:14:00;;;;;;;40.10;22.13;;;2.40;99.90;;;;;;4984804;28;20031;-77
2022/12/03 06:16:26;;;;;;;37.63;21.10;;;2.40;99.90;;;;;;4984639;28;20047;-78
2022/12/03 06:18:53;;;;;;;39.80;22.33;;;2.40;99.90;;;;;;4985205;28;20034;-76
2022/12/03 06:21:19;;;;;;;38.37;22.27;;;2.40;99.90;;;;;;4988017;28;20034;-77
2022/12/03 06:23:46;;;;;;;34.90;19.43;;;2.40;99.90;;;;;;4988280;28;20034;-77
2022/12/03 06:26:13;;;;;;;37.87;21.87;;;2.40;99.90;;;;;;4988102;28;20090;-77
2022/12/03 06:28:44;;;;;;;39.73;22.63;;;2.40;99.90;;;;;;4985849;28;20042;-78
2022/12/03 06:31:11;;;;;;;37.00;19.00;;;2.40;99.90;;;;;;4989857;28;20468;-78
2022/12/03 06:33:38;;;;;;;36.67;20.47;;;2.40;99.90;;;;;;4988008;28;20047;-77
2022/12/03 06:36:04;;;;;;;39.03;22.63;;;2.30;99.90;;;;;;4973170;28;20042;-76
2022/12/03 06:38:31;;;;;;;34.47;19.57;;;2.40;99.90;;;;;;4985163;28;20057;-76
2022/12/03 06:40:57;;;;;;;43.53;24.93;;;2.30;99.90;;;;;;4987807;28;20049;-77
2022/12/03 06:43:23;;;;;;;36.80;19.73;;;2.40;99.90;;;;;;4972759;28;20042;-77
2022/12/03 06:45:50;;;;;;;37.03;20.13;;;2.40;99.90;;;;;;4988127;28;20050;-76
2022/12/03 06:48:16;;;;;;;30.40;17.73;;;2.40;99.90;;;;;;4969596;28;20070;-77
2022/12/03 06:50:42;;;;;;;37.07;19.07;;;2.40;99.90;;;;;;4987583;28;20069;-77
2022/12/03 06:53:08;;;;;;;38.13;20.33;;;2.40;99.90;;;;;;4989402;28;20049;-77
2022/12/03 06:55:35;;;;;;;41.40;22.40;;;2.40;99.90;;;;;;4999122;28;20065;-77
2022/12/03 06:58:01;;;;;;;38.93;20.43;;;2.40;99.90;;;;;;4984867;28;20118;-77
2022/12/03 07:00:27;;;;;;;39.03;21.87;;;2.40;99.90;;;;;;5003757;28;20458;-76
2022/12/03 07:02:54;;;;;;;43.33;22.60;;;2.40;99.90;;;;;;4977802;28;20312;-77
2022/12/03 07:05:20;;;;;;;39.97;21.77;;;2.40;99.90;;;;;;5003732;28;20489;-77
2022/12/03 07:07:50;;;;;;;46.20;24.43;;;2.40;99.90;;;;;;4984108;28;20049;-76
2022/12/03 07:10:18;;;;;;;48.23;25.83;;;2.40;99.90;;;;;;4983989;28;20039;-76
2022/12/03 07:12:44;;;;;;;55.93;25.90;;;2.40;99.90;;;;;;4987336;28;20035;-77
2022/12/03 07:15:10;;;;;;;49.90;25.80;;;2.30;99.90;;;;;;4987456;28;20058;-78
2022/12/03 07:17:36;;;;;;;42.93;23.23;;;2.30;99.90;;;;;;4985503;28;20042;-78
2022/12/03 07:20:03;;;;;;;51.90;26.03;;;2.30;99.90;;;;;;5003346;28;20042;-80
2022/12/03 07:22:32;;;;;;;53.10;25.30;;;2.40;99.90;;;;;;5003271;28;20050;-77
2022/12/03 07:24:58;;;;;;;62.57;31.90;;;2.30;99.90;;;;;;4986567;28;20037;-78
2022/12/03 07:27:24;;;;;;;62.57;30.70;;;2.40;99.90;;;;;;4995091;28;20325;-78
2022/12/03 07:29:51;;;;;;;54.03;27.63;;;2.40;99.90;;;;;;4985232;28;20049;-78
2022/12/03 07:32:17;;;;;;;49.63;25.97;;;2.30;99.90;;;;;;4968008;28;20030;-78
2022/12/03 07:34:43;;;;;;;46.87;24.97;;;2.30;99.90;;;;;;4971913;28;20033;-79
2022/12/03 07:37:09;;;;;;;49.03;24.90;;;2.40;99.90;;;;;;4983305;28;20141;-77
2022/12/03 07:39:36;;;;;;;53.63;27.03;;;2.40;99.90;;;;;;4988314;28;20027;-78
2022/12/03 07:42:02;;;;;;;59.47;27.73;;;2.40;99.90;;;;;;4971233;28;20046;-77
2022/12/03 07:44:30;;;;;;;46.20;22.87;;;2.40;99.90;;;;;;4989594;28;20385;-78
2022/12/03 07:46:57;;;;;;;58.97;29.67;;;2.40;99.90;;;;;;4970816;28;20417;-78
2022/12/03 07:49:23;;;;;;;62.30;30.93;;;2.40;99.90;;;;;;4984643;28;20034;-77
2022/12/03 07:51:53;;;;;;;57.23;29.23;;;2.40;99.90;;;;;;4987690;28;20125;-77
2022/12/03 07:54:20;;;;;;;58.43;28.10;;;2.40;99.90;;;;;;5003171;28;20034;-77
2022/12/03 07:56:49;;;;;;;62.67;31.03;;;2.40;99.90;;;;;;4986286;28;20045;-76
2022/12/03 07:59:16;;;;;;;62.73;30.70;;;2.40;99.90;;;;;;4969114;28;20042;-78
2022/12/03 08:01:43;;;;;;;65.03;31.63;;;2.40;99.90;;;;;;4986263;28;20042;-78
2022/12/03 08:04:13;;;;;;;66.10;30.73;;;2.40;99.90;;;;;;4986929;28;20520;-77
2022/12/03 08:06:40;;;;;;;68.43;33.10;;;2.30;99.90;;;;;;4985769;28;20516;-77
2022/12/03 08:09:07;;;;;;;62.43;31.47;;;2.30;99.90;;;;;;4976124;28;20034;-77
2022/12/03 08:11:33;;;;;;;64.37;32.13;;;2.30;99.90;;;;;;4969378;28;20037;-78
2022/12/03 08:13:59;;;;;;;62.00;30.13;;;2.30;99.90;;;;;;4985156;28;20030;-77
2022/12/03 08:16:25;;;;;;;59.17;28.70;;;2.30;99.90;;;;;;4982769;28;20054;-77
2022/12/03 08:18:56;;;;;;;67.10;32.47;;;2.30;99.90;;;;;;4964981;28;20030;-78
2022/12/03 08:21:22;;;;;;;70.07;34.27;;;2.30;99.90;;;;;;4966740;28;20042;-78
2022/12/03 08:23:48;;;;;;;66.17;31.90;;;2.30;99.90;;;;;;4969873;28;20485;-77
2022/12/03 08:26:26;;;;;;;74.17;33.03;;;2.30;99.90;;;;;;4971114;28;20038;-77
2022/12/03 08:28:53;;;;;;;69.90;32.37;;;2.30;99.90;;;;;;4990183;28;20034;-77
2022/12/03 08:31:24;;;;;;;70.43;34.43;;;2.30;99.90;;;;;;4986456;28;20481;-78
2022/12/03 08:33:53;;;;;;;69.90;30.50;;;2.30;99.90;;;;;;5002392;28;20041;-78
2022/12/03 08:36:25;;;;;;;72.90;34.03;;;2.30;99.90;;;;;;4985756;28;20034;-77
2022/12/03 08:38:56;;;;;;;66.50;29.70;;;2.30;99.90;;;;;;4983764;28;20504;-83
2022/12/03 08:44:19;;;;;;;56.63;27.33;;;2.30;99.90;;;;;;4985603;28;20038;-77
2022/12/03 08:47:05;;;;;;;63.07;31.07;;;2.30;99.90;;;;;;4984769;28;20038;-76
2022/12/03 08:49:31;;;;;;;63.57;29.43;;;2.30;99.90;;;;;;4977538;28;20035;-76
2022/12/03 08:52:00;;;;;;;61.73;28.37;;;2.30;99.90;;;;;;4984151;28;20408;-76
2022/12/03 08:54:27;;;;;;;63.23;28.10;;;2.30;99.90;;;;;;4988821;28;20038;-77
2022/12/03 08:56:53;;;;;;;64.73;29.87;;;2.30;99.90;;;;;;5001601;28;20030;-77
2022/12/03 08:59:28;;;;;;;70.80;32.73;;;2.30;99.90;;;;;;4999053;28;20034;-76
2022/12/03 09:01:55;;;;;;;59.70;27.70;;;2.30;99.90;;;;;;4984370;28;20057;-77
2022/12/03 09:04:44;;;;;;;61.27;28.00;;;2.30;99.90;;;;;;4986716;28;20030;-77
2022/12/03 09:07:10;;;;;;;73.50;31.53;;;2.30;99.90;;;;;;4984669;28;20397;-77
2022/12/03 09:09:37;;;;;;;67.70;28.47;;;2.30;99.90;;;;;;5001334;28;20042;-78
2022/12/03 09:12:03;;;;;;;59.50;26.33;;;2.30;99.90;;;;;;4985004;28;20504;-77
2022/12/03 09:14:30;;;;;;;61.90;27.93;;;2.20;99.90;;;;;;4985826;28;20058;-76
2022/12/03 09:16:56;;;;;;;71.13;31.87;;;2.30;99.90;;;;;;4971661;28;20060;-77
2022/12/03 09:19:24;;;;;;;70.30;29.00;;;2.20;99.90;;;;;;4982292;28;20038;-77
2022/12/03 09:21:52;;;;;;;66.57;27.90;;;2.20;99.90;;;;;;4984978;28;20030;-76
2022/12/03 09:24:18;;;;;;;70.70;31.33;;;2.20;99.90;;;;;;4984372;28;20057;-77
2022/12/03 09:26:45;;;;;;;67.80;27.03;;;2.20;99.90;;;;;;4981048;28;20319;-76
2022/12/03 09:29:11;;;;;;;73.37;30.57;;;2.20;99.90;;;;;;4998491;28;20425;-76
2022/12/03 09:31:38;;;;;;;73.77;33.67;;;2.20;99.90;;;;;;4969474;28;20030;-76
2022/12/03 09:34:04;;;;;;;69.37;30.43;;;2.20;99.90;;;;;;4969513;28;20497;-76
2022/12/03 09:36:31;;;;;;;66.87;31.27;;;2.20;99.90;;;;;;4984829;28;20034;-76
2022/12/03 09:38:57;;;;;;;62.23;28.20;;;2.20;99.90;;;;;;4981968;28;20066;-76
2022/12/03 09:41:25;;;;;;;69.70;29.83;;;2.20;99.90;;;;;;4984369;28;20037;-76
2022/12/03 09:43:53;;;;;;;59.17;29.07;;;2.20;99.90;;;;;;4984483;28;20048;-76
2022/12/03 09:46:21;;;;;;;55.97;25.57;;;2.20;99.90;;;;;;4985100;28;20395;-77
2022/12/03 09:48:47;;;;;;;55.20;24.47;;;2.20;99.90;;;;;;4982296;28;20046;-76
2022/12/03 09:51:14;;;;;;;60.63;27.60;;;2.10;99.90;;;;;;4958107;28;20049;-75
2022/12/03 09:53:40;;;;;;;57.33;26.47;;;2.10;99.90;;;;;;4987505;28;20026;-77
2022/12/03 09:56:16;;;;;;;44.27;21.67;;;2.10;99.90;;;;;;5005367;28;20508;-76
2022/12/03 09:58:43;;;;;;;46.67;22.23;;;2.10;99.90;;;;;;4970052;28;20041;-76
2022/12/03 10:01:14;;;;;;;54.00;27.60;;;2.10;99.90;;;;;;4971240;28;20512;-76
2022/12/03 10:03:47;;;;;;;45.77;21.80;;;2.10;99.90;;;;;;4971023;28;20033;-75
2022/12/03 10:06:15;;;;;;;;;;;2.20;99.90;;;;;;4971098;28;20041;-76
2022/12/03 10:08:41;;;;;;;40.83;19.00;;;2.20;99.90;;;;;;4982219;28;19918;-77
2022/12/03 10:11:08;;;;;;;40.10;19.17;;;2.20;99.90;;;;;;4987087;28;20038;-77
2022/12/03 10:13:36;;;;;;;42.30;19.77;;;2.20;99.90;;;;;;4972269;28;20033;-77
2022/12/03 10:16:02;;;;;;;40.83;19.83;;;2.20;99.90;;;;;;4989164;28;20046;-76
2022/12/03 10:18:33;;;;;;;44.23;21.17;;;2.20;99.90;;;;;;4985102;28;20031;-76
2022/12/03 10:20:59;;;;;;;43.77;20.50;;;2.20;99.90;;;;;;5003656;28;20046;-77
2022/12/03 10:23:28;;;;;;;43.13;21.83;;;2.20;99.90;;;;;;4983276;28;20038;-76
2022/12/03 10:26:01;;;;;;;47.57;22.60;;;2.20;99.90;;;;;;4987126;28;20464;-76
2022/12/03 10:28:34;;;;;;;47.43;22.20;;;2.30;99.90;;;;;;4968044;28;20038;-76
2022/12/03 10:31:02;;;;;;;48.00;23.20;;;2.30;99.90;;;;;;5003287;28;20051;-76
2022/12/03 10:33:41;;;;;;;57.13;24.43;;;2.30;99.90;;;;;;4954484;28;20069;-76
2022/12/03 10:36:28;;;;;;;49.90;22.70;;;2.20;99.90;;;;;;4971237;28;20049;-76
2022/12/03 10:39:11;;;;;;;47.10;22.33;;;2.20;99.90;;;;;;4983707;28;20058;-77
2022/12/03 10:41:40;;;;;;;53.88;25.00;;;2.10;99.90;;;;;;5001405;28;20396;-76
2022/12/03 10:44:24;;;;;;;51.03;22.20;;;2.10;99.90;;;;;;4986592;28;20038;-76
2022/12/03 10:47:06;;;;;;;47.50;21.87;;;2.10;99.90;;;;;;4971296;28;20046;-76
2022/12/03 10:49:32;;;;;;;51.60;24.00;;;2.10;99.90;;;;;;4969769;28;20045;-76
2022/12/03 10:51:59;;;;;;;53.63;24.80;;;2.10;99.90;;;;;;4970968;28;20050;-76
2022/12/03 10:54:27;;;;;;;45.03;19.97;;;2.10;99.90;;;;;;4989465;28;20398;-76
2022/12/03 10:56:54;;;;;;;45.03;20.37;;;2.10;99.90;;;;;;4972616;28;20038;-76
2022/12/03 10:59:24;;;;;;;44.03;20.70;;;2.10;99.90;;;;;;4951915;28;20050;-77
2022/12/03 11:01:51;;;;;;;53.37;23.97;;;2.00;99.90;;;;;;4987327;28;20046;-76
2022/12/03 11:04:33;;;;;;;46.40;22.30;;;2.00;99.90;;;;;;4988332;28;20404;-76
2022/12/03 11:07:02;;;;;;;49.25;21.80;;;2.00;99.90;;;;;;5003075;28;20030;-76
2022/12/03 11:09:31;;;;;;;47.50;20.67;;;2.00;99.90;;;;;;4986208;28;20412;-77
2022/12/03 11:12:05;;;;;;;48.80;21.33;;;2.00;99.90;;;;;;4972202;28;20404;-76
2022/12/03 11:14:51;;;;;;;40.10;18.87;;;2.00;99.90;;;;;;4975559;28;20516;-76
2022/12/03 11:17:40;;;;;;;47.37;19.73;;;2.00;99.90;;;;;;4967951;28;20049;-76
2022/12/03 11:20:19;;;;;;;42.37;19.93;;;2.00;99.90;;;;;;5003855;28;20413;-76
2022/12/03 11:22:50;;;;;;;38.47;17.70;;;2.00;99.90;;;;;;4987548;28;20042;-77
2022/12/03 11:25:26;;;;;;;45.93;19.70;;;2.00;99.90;;;;;;4955252;28;20050;-76
2022/12/03 11:28:10;;;;;;;40.80;19.90;;;1.90;99.90;;;;;;4969506;28;20042;-76
2022/12/03 11:30:52;;;;;;;39.40;19.27;;;1.90;99.90;;;;;;4996212;28;20058;-77
2022/12/03 11:33:48;;;;;;;38.47;16.73;;;1.90;99.90;;;;;;4987207;28;20038;-77
2022/12/03 11:36:14;;;;;;;40.10;17.27;;;1.90;99.90;;;;;;4981260;28;20042;-77
2022/12/03 11:38:44;;;;;;;55.73;26.03;;;1.90;99.90;;;;;;4967177;28;20438;-76
2022/12/03 11:41:13;;;;;;;46.03;20.83;;;2.00;99.90;;;;;;4965027;28;20042;-76
2022/12/03 11:43:52;;;;;;;49.13;22.90;;;2.00;99.90;;;;;;4985562;28;20038;-76
2022/12/03 11:46:25;;;;;;;38.80;19.43;;;2.00;99.90;;;;;;4987088;28;20038;-77
2022/12/03 11:48:53;;;;;;;48.60;21.60;;;2.00;99.90;;;;;;4985385;28;20386;-78
2022/12/03 11:51:23;;;;;;;47.30;22.53;;;2.00;99.90;;;;;;4985981;28;20045;-76
2022/12/03 11:53:51;;;;;;;50.47;22.10;;;2.00;99.90;;;;;;4987030;28;20038;-76
2022/12/03 11:56:21;;;;;;;45.40;20.27;;;2.00;99.90;;;;;;4975495;28;20490;-76
2022/12/03 11:58:55;;;;;;;48.97;21.67;;;1.90;99.90;;;;;;4999533;28;20042;-76
2022/12/03 12:01:32;;;;;;;47.33;21.20;;;2.00;99.90;;;;;;4986416;28;20042;-76
2022/12/03 12:03:59;;;;;;;43.97;19.20;;;1.90;99.90;;;;;;4986109;28;20026;-76
2022/12/03 12:06:25;;;;;;;46.83;21.40;;;2.00;99.90;;;;;;4986739;28;20031;-76
2022/12/03 12:08:51;;;;;;;48.40;21.33;;;2.00;99.90;;;;;;4985148;28;20054;-77
2022/12/03 12:11:35;;;;;;;50.40;24.10;;;1.90;99.90;;;;;;4987431;28;20065;-76
2022/12/03 12:14:10;;;;;;;47.30;21.93;;;1.90;99.90;;;;;;4985695;28;20412;-77
2022/12/03 12:16:44;;;;;;;43.90;19.87;;;1.90;99.90;;;;;;4990248;28;20046;-76
2022/12/03 12:19:31;;;;;;;48.67;20.40;;;2.00;99.90;;;;;;4968711;28;20038;-77
2022/12/03 12:22:18;;;;;;;48.87;22.53;;;2.00;99.90;;;;;;4986307;28;20477;-77
2022/12/03 12:24:52;;;;;;;58.57;27.07;;;2.00;99.90;;;;;;4986765;28;20042;-76
2022/12/03 12:27:36;;;;;;;54.13;25.37;;;2.00;99.90;;;;;;4999698;28;20053;-76
2022/12/03 12:30:15;;;;;;;55.43;23.63;;;2.00;99.90;;;;;;4971144;28;20042;-75
2022/12/03 12:33:00;;;;;;;56.57;23.97;;;2.00;99.90;;;;;;4985620;28;20497;-76
2022/12/03 12:35:32;;;;;;;65.30;29.27;;;1.90;99.90;;;;;;5002070;28;20396;-76
2022/12/03 12:38:01;;;;;;;61.60;26.25;;;1.90;99.90;;;;;;4984295;28;20033;-76
2022/12/03 12:40:31;;;;;;;57.03;24.10;;;1.90;99.90;;;;;;4987213;28;20034;-76
2022/12/03 12:43:00;;;;;;;65.07;27.80;;;1.90;99.90;;;;;;4986273;28;20508;-76
2022/12/03 12:45:33;;;;;;;59.57;26.37;;;1.90;99.90;;;;;;4971027;28;20070;-76
2022/12/03 12:48:14;;;;;;;57.67;26.40;;;2.00;99.90;;;;;;4984744;28;20038;-76
2022/12/03 12:50:42;;;;;;;54.10;24.23;;;1.90;99.90;;;;;;4989220;28;20053;-77
2022/12/03 12:53:23;;;;;;;72.97;32.60;;;1.90;99.90;;;;;;5001226;28;20042;-77
2022/12/03 12:55:55;;;;;;;65.20;28.30;;;2.00;99.90;;;;;;5001977;28;20038;-76
2022/12/03 12:58:21;;;;;;;67.17;29.27;;;1.90;99.90;;;;;;4980987;28;20038;-77
2022/12/03 13:00:51;;;;;;;67.37;29.07;;;1.90;99.90;;;;;;4951665;28;20026;-77
2022/12/03 13:03:20;;;;;;;76.03;32.33;;;1.90;99.90;;;;;;4977772;28;20401;-77
2022/12/03 13:05:48;;;;;;;78.93;34.30;;;2.00;99.90;;;;;;4974950;28;20494;-77
2022/12/03 13:08:26;;;;;;;71.27;30.87;;;1.90;99.90;;;;;;4967509;28;20037;-76
2022/12/03 13:10:54;;;;;;;67.27;28.93;;;2.00;99.90;;;;;;4985430;28;20378;-77
2022/12/03 13:13:22;;;;;;;77.30;31.47;;;1.90;99.90;;;;;;4989299;28;20054;-77
2022/12/03 13:15:53;;;;;;;68.50;28.90;;;1.90;99.90;;;;;;4969137;28;20508;-76